Terminal Aerodrome Forecast
Issued by NWS Wichita, KS

Home | Current Version | Previous Version | Graphics & Text | Print | Product List | Glossary On
Versions: 1 2 3 4 5 6 7 8 9 10 11 12 13 14 15 16 17 18
000
FTUS43 KICT 301500 AAA
TAFICT
TAF AMD
KICT 301510Z 3015/3112 10005KT P6SM VCSH SCT025 BKN035
      TEMPO 3016/3020 5SM SHRA SCT008 OVC015
     FM310100 06005KT P6SM VCSH SCT025 BKN050
     FM310600 VRB03KT 4SM BR SCT100=

USA.gov is the U.S. government's official web portal to all federal, state and local government web resources and services.